OAKB/KBL METAR and TAF weather

Enter ICAO airport designator
Station Type Date Time Source
OAKB METAR 2021/04/13 21:50 UTC NOAA

OAKB 132150Z VRB03KT 9999 BKN090 13/02 Q1021 RMK A3017 BLU BLU


Station Type Date Time Source
OAKB Decoded METAR 2021/04/13 21:50 UTC NOAA

Kabul Airport, Afghanistan (OAKB) 34-38N 069-12E
Apr 13, 2021 - 05:50 PM EDT / 2021.04.13 2150 UTC
Wind: Variable at 3 MPH (3 KT):0
Visibility: greater than 7 mile(s):0
Sky conditions: mostly cloudy
Temperature: 55 F (13 C)
Dew Point: 35 F (2 C)
Relative Humidity: 47%
Pressure (altimeter): 30.15 in. Hg (1021 hPa)
ob: OAKB 132150Z VRB03KT 9999 BKN090 13/02 Q1021 RMK A3017 BLU BLU
cycle: 22

Station Type Date Time Source
OAKB TAF 2021/04/13 18:05 UTC NOAA

TAF OAKB 131705Z 1318/1418 36012KT 9999 SCT100
BECMG 1319/1321 VRB02KT PROB30 1400/1403 5000 HZ
BECMG 1404/1406 BKN080
TEMPO 1410/1414 27015G25KT -SHRA VCTS SCT040CB BKN080

Example: see airport list